sensor_id;sensor_type;location;lat;lon;timestamp;temperature;humidity
16515;DHT22;8370;52.556;7.970;2023-02-28T00:01:21;1.90;99.90
16515;DHT22;8370;52.556;7.970;2023-02-28T00:03:47;1.90;99.90
16515;DHT22;8370;52.556;7.970;2023-02-28T00:06:13;1.90;99.90
16515;DHT22;8370;52.556;7.970;2023-02-28T00:08:39;1.80;99.90
16515;DHT22;8370;52.556;7.970;2023-02-28T00:11:10;1.90;99.90
16515;DHT22;8370;52.556;7.970;2023-02-28T00:13:37;1.80;99.90
16515;DHT22;8370;52.556;7.970;2023-02-28T00:16:05;1.80;99.90
16515;DHT22;8370;52.556;7.970;2023-02-28T00:18:33;1.80;99.90
16515;DHT22;8370;52.556;7.970;2023-02-28T00:20:59;1.80;99.90
16515;DHT22;8370;52.556;7.970;2023-02-28T00:23:25;1.80;99.90
16515;DHT22;8370;52.556;7.970;2023-02-28T00:25:51;1.80;99.90
16515;DHT22;8370;52.556;7.970;2023-02-28T00:28:17;1.80;99.90
16515;DHT22;8370;52.556;7.970;2023-02-28T00:30:44;1.80;99.90
16515;DHT22;8370;52.556;7.970;2023-02-28T00:33:10;1.80;99.90
16515;DHT22;8370;52.556;7.970;2023-02-28T00:35:35;1.70;99.90
16515;DHT22;8370;52.556;7.970;2023-02-28T00:38:01;1.70;99.90
16515;DHT22;8370;52.556;7.970;2023-02-28T00:40:26;1.70;99.90
16515;DHT22;8370;52.556;7.970;2023-02-28T00:42:52;1.70;99.90
16515;DHT22;8370;52.556;7.970;2023-02-28T00:45:17;1.80;99.90
16515;DHT22;8370;52.556;7.970;2023-02-28T00:47:43;1.80;99.90
16515;DHT22;8370;52.556;7.970;2023-02-28T00:50:09;1.80;99.90
16515;DHT22;8370;52.556;7.970;2023-02-28T00:52:35;1.80;99.90
16515;DHT22;8370;52.556;7.970;2023-02-28T00:55:00;1.80;99.90
16515;DHT22;8370;52.556;7.970;2023-02-28T00:57:26;1.90;99.90
16515;DHT22;8370;52.556;7.970;2023-02-28T00:59:51;1.90;99.90
16515;DHT22;8370;52.556;7.970;2023-02-28T01:02:19;1.90;99.90
16515;DHT22;8370;52.556;7.970;2023-02-28T01:04:45;1.90;99.90
16515;DHT22;8370;52.556;7.970;2023-02-28T01:07:11;1.90;99.90
16515;DHT22;8370;52.556;7.970;2023-02-28T01:09:37;1.90;99.90
16515;DHT22;8370;52.556;7.970;2023-02-28T01:12:02;1.90;99.90
16515;DHT22;8370;52.556;7.970;2023-02-28T01:14:28;1.90;99.90
16515;DHT22;8370;52.556;7.970;2023-02-28T01:16:53;1.90;99.90
16515;DHT22;8370;52.556;7.970;2023-02-28T01:19:19;1.90;99.90
16515;DHT22;8370;52.556;7.970;2023-02-28T01:21:44;1.80;99.90
16515;DHT22;8370;52.556;7.970;2023-02-28T01:24:10;1.90;99.90
16515;DHT22;8370;52.556;7.970;2023-02-28T01:26:35;1.90;99.90
16515;DHT22;8370;52.556;7.970;2023-02-28T01:29:01;1.90;99.90
16515;DHT22;8370;52.556;7.970;2023-02-28T01:31:26;1.80;99.90
16515;DHT22;8370;52.556;7.970;2023-02-28T01:33:52;1.90;99.90
16515;DHT22;8370;52.556;7.970;2023-02-28T01:36:20;1.80;99.90
16515;DHT22;8370;52.556;7.970;2023-02-28T01:38:46;1.80;99.90
16515;DHT22;8370;52.556;7.970;2023-02-28T01:41:24;1.90;99.90
16515;DHT22;8370;52.556;7.970;2023-02-28T01:44:04;1.90;99.90
16515;DHT22;8370;52.556;7.970;2023-02-28T01:46:35;1.90;99.90
16515;DHT22;8370;52.556;7.970;2023-02-28T01:49:05;1.80;99.90
16515;DHT22;8370;52.556;7.970;2023-02-28T01:54:07;1.80;99.90
16515;DHT22;8370;52.556;7.970;2023-02-28T01:56:40;1.80;99.90
16515;DHT22;8370;52.556;7.970;2023-02-28T01:59:09;1.80;99.90
16515;DHT22;8370;52.556;7.970;2023-02-28T02:01:35;1.80;99.90
16515;DHT22;8370;52.556;7.970;2023-02-28T02:04:02;1.70;99.90
16515;DHT22;8370;52.556;7.970;2023-02-28T02:06:34;1.70;99.90
16515;DHT22;8370;52.556;7.970;2023-02-28T02:09:01;1.70;99.90
16515;DHT22;8370;52.556;7.970;2023-02-28T02:11:27;1.60;99.90
16515;DHT22;8370;52.556;7.970;2023-02-28T02:13:58;1.60;99.90
16515;DHT22;8370;52.556;7.970;2023-02-28T02:16:52;1.60;99.90
16515;DHT22;8370;52.556;7.970;2023-02-28T02:22:29;1.50;99.90
16515;DHT22;8370;52.556;7.970;2023-02-28T02:25:23;1.50;99.90
16515;DHT22;8370;52.556;7.970;2023-02-28T02:27:57;1.40;99.90
16515;DHT22;8370;52.556;7.970;2023-02-28T02:30:44;1.40;99.90
16515;DHT22;8370;52.556;7.970;2023-02-28T02:38:58;1.40;99.90
16515;DHT22;8370;52.556;7.970;2023-02-28T02:41:46;1.40;99.90
16515;DHT22;8370;52.556;7.970;2023-02-28T02:44:24;1.40;99.90
16515;DHT22;8370;52.556;7.970;2023-02-28T02:46:58;1.40;99.90
16515;DHT22;8370;52.556;7.970;2023-02-28T02:49:29;1.40;99.90
16515;DHT22;8370;52.556;7.970;2023-02-28T02:51:58;1.30;99.90
16515;DHT22;8370;52.556;7.970;2023-02-28T02:54:38;1.40;99.90
16515;DHT22;8370;52.556;7.970;2023-02-28T02:57:13;1.30;99.90
16515;DHT22;8370;52.556;7.970;2023-02-28T02:59:41;1.30;99.90
16515;DHT22;8370;52.556;7.970;2023-02-28T03:02:11;1.30;99.90
16515;DHT22;8370;52.556;7.970;2023-02-28T03:04:46;1.30;99.90
16515;DHT22;8370;52.556;7.970;2023-02-28T03:07:13;1.40;99.90
16515;DHT22;8370;52.556;7.970;2023-02-28T03:09:39;1.40;99.90
16515;DHT22;8370;52.556;7.970;2023-02-28T03:12:09;1.40;99.90
16515;DHT22;8370;52.556;7.970;2023-02-28T03:15:19;1.40;99.90
16515;DHT22;8370;52.556;7.970;2023-02-28T03:20:35;1.40;99.90
16515;DHT22;8370;52.556;7.970;2023-02-28T03:25:56;1.40;99.90
16515;DHT22;8370;52.556;7.970;2023-02-28T03:28:42;1.40;99.90
16515;DHT22;8370;52.556;7.970;2023-02-28T03:34:10;1.30;99.90
16515;DHT22;8370;52.556;7.970;2023-02-28T03:36:40;1.30;99.90
16515;DHT22;8370;52.556;7.970;2023-02-28T03:39:17;1.30;99.90
16515;DHT22;8370;52.556;7.970;2023-02-28T03:41:52;1.20;99.90
16515;DHT22;8370;52.556;7.970;2023-02-28T03:44:24;1.10;99.90
16515;DHT22;8370;52.556;7.970;2023-02-28T03:47:18;1.00;99.90
16515;DHT22;8370;52.556;7.970;2023-02-28T03:49:49;0.90;99.90
16515;DHT22;8370;52.556;7.970;2023-02-28T03:52:17;0.80;99.90
16515;DHT22;8370;52.556;7.970;2023-02-28T03:54:50;0.70;99.90
16515;DHT22;8370;52.556;7.970;2023-02-28T03:57:32;0.60;99.90
16515;DHT22;8370;52.556;7.970;2023-02-28T04:00:06;0.50;99.90
16515;DHT22;8370;52.556;7.970;2023-02-28T04:02:33;0.40;99.90
16515;DHT22;8370;52.556;7.970;2023-02-28T04:05:00;0.40;99.90
16515;DHT22;8370;52.556;7.970;2023-02-28T04:07:29;0.40;99.90
16515;DHT22;8370;52.556;7.970;2023-02-28T04:09:56;0.40;99.90
16515;DHT22;8370;52.556;7.970;2023-02-28T04:12:22;0.30;99.90
16515;DHT22;8370;52.556;7.970;2023-02-28T04:14:49;0.30;99.90
16515;DHT22;8370;52.556;7.970;2023-02-28T04:17:15;0.30;99.90
16515;DHT22;8370;52.556;7.970;2023-02-28T04:19:41;0.30;99.90
16515;DHT22;8370;52.556;7.970;2023-02-28T04:22:08;0.30;99.90
16515;DHT22;8370;52.556;7.970;2023-02-28T04:24:34;0.30;99.90
16515;DHT22;8370;52.556;7.970;2023-02-28T04:26:59;0.30;99.90
16515;DHT22;8370;52.556;7.970;2023-02-28T04:29:28;0.30;99.90
16515;DHT22;8370;52.556;7.970;2023-02-28T04:31:55;0.30;99.90
16515;DHT22;8370;52.556;7.970;2023-02-28T04:34:23;0.20;99.90
16515;DHT22;8370;52.556;7.970;2023-02-28T04:36:49;0.30;99.90
16515;DHT22;8370;52.556;7.970;2023-02-28T04:39:16;0.30;99.90
16515;DHT22;8370;52.556;7.970;2023-02-28T04:41:44;0.40;99.90
16515;DHT22;8370;52.556;7.970;2023-02-28T04:44:09;0.40;99.90
16515;DHT22;8370;52.556;7.970;2023-02-28T04:46:35;0.40;99.90
16515;DHT22;8370;52.556;7.970;2023-02-28T04:49:00;0.40;99.90
16515;DHT22;8370;52.556;7.970;2023-02-28T04:51:26;0.40;99.90
16515;DHT22;8370;52.556;7.970;2023-02-28T04:53:52;0.40;99.90
16515;DHT22;8370;52.556;7.970;2023-02-28T04:56:18;0.40;99.90
16515;DHT22;8370;52.556;7.970;2023-02-28T04:58:44;0.50;99.90
16515;DHT22;8370;52.556;7.970;2023-02-28T05:01:25;0.40;99.90
16515;DHT22;8370;52.556;7.970;2023-02-28T05:03:52;0.40;99.90
16515;DHT22;8370;52.556;7.970;2023-02-28T05:06:19;0.40;99.90
16515;DHT22;8370;52.556;7.970;2023-02-28T05:08:46;0.40;99.90
16515;DHT22;8370;52.556;7.970;2023-02-28T05:11:18;0.30;99.90
16515;DHT22;8370;52.556;7.970;2023-02-28T05:13:45;0.30;99.90
16515;DHT22;8370;52.556;7.970;2023-02-28T05:16:10;0.30;99.90
16515;DHT22;8370;52.556;7.970;2023-02-28T05:18:36;0.20;99.90
16515;DHT22;8370;52.556;7.970;2023-02-28T05:21:02;0.20;99.90
16515;DHT22;8370;52.556;7.970;2023-02-28T05:23:28;0.10;99.90
16515;DHT22;8370;52.556;7.970;2023-02-28T05:25:54;0.10;99.90
16515;DHT22;8370;52.556;7.970;2023-02-28T05:28:20;0.00;99.90
16515;DHT22;8370;52.556;7.970;2023-02-28T05:30:46;-0.10;99.90
16515;DHT22;8370;52.556;7.970;2023-02-28T05:33:12;-0.10;99.90
16515;DHT22;8370;52.556;7.970;2023-02-28T05:35:39;-0.20;99.90
16515;DHT22;8370;52.556;7.970;2023-02-28T05:38:05;-0.20;99.90
16515;DHT22;8370;52.556;7.970;2023-02-28T05:40:30;-0.30;99.90
16515;DHT22;8370;52.556;7.970;2023-02-28T05:42:56;-0.40;99.90
16515;DHT22;8370;52.556;7.970;2023-02-28T05:45:21;-0.40;99.90
16515;DHT22;8370;52.556;7.970;2023-02-28T05:47:47;-0.50;99.90
16515;DHT22;8370;52.556;7.970;2023-02-28T05:50:12;-0.60;99.90
16515;DHT22;8370;52.556;7.970;2023-02-28T05:52:38;-0.60;99.90
16515;DHT22;8370;52.556;7.970;2023-02-28T05:55:04;-0.60;99.90
16515;DHT22;8370;52.556;7.970;2023-02-28T05:57:29;-0.70;99.90
16515;DHT22;8370;52.556;7.970;2023-02-28T05:59:55;-0.70;99.90
16515;DHT22;8370;52.556;7.970;2023-02-28T06:02:20;-0.70;99.90
16515;DHT22;8370;52.556;7.970;2023-02-28T06:04:46;-0.70;99.90
16515;DHT22;8370;52.556;7.970;2023-02-28T06:07:12;-0.70;99.90
16515;DHT22;8370;52.556;7.970;2023-02-28T06:09:38;-0.60;99.90
16515;DHT22;8370;52.556;7.970;2023-02-28T06:12:05;-0.60;99.90
16515;DHT22;8370;52.556;7.970;2023-02-28T06:14:32;-0.50;99.90
16515;DHT22;8370;52.556;7.970;2023-02-28T06:16:59;-0.50;99.90
16515;DHT22;8370;52.556;7.970;2023-02-28T06:19:25;-0.40;99.90
16515;DHT22;8370;52.556;7.970;2023-02-28T06:21:52;-0.40;99.90
16515;DHT22;8370;52.556;7.970;2023-02-28T06:24:18;-0.30;99.90
16515;DHT22;8370;52.556;7.970;2023-02-28T06:26:44;-0.30;99.90
16515;DHT22;8370;52.556;7.970;2023-02-28T06:29:10;-0.20;99.90
16515;DHT22;8370;52.556;7.970;2023-02-28T06:31:36;-0.20;99.90
16515;DHT22;8370;52.556;7.970;2023-02-28T06:34:03;-0.20;99.90
16515;DHT22;8370;52.556;7.970;2023-02-28T06:36:29;-0.20;99.90
16515;DHT22;8370;52.556;7.970;2023-02-28T06:38:55;-0.20;99.90
16515;DHT22;8370;52.556;7.970;2023-02-28T06:41:25;-0.20;99.90
16515;DHT22;8370;52.556;7.970;2023-02-28T06:43:52;-0.20;99.90
16515;DHT22;8370;52.556;7.970;2023-02-28T06:46:17;-0.20;99.90
16515;DHT22;8370;52.556;7.970;2023-02-28T06:48:44;-0.20;99.90
16515;DHT22;8370;52.556;7.970;2023-02-28T06:51:12;-0.20;99.90
16515;DHT22;8370;52.556;7.970;2023-02-28T06:53:39;-0.20;99.90
16515;DHT22;8370;52.556;7.970;2023-02-28T06:56:06;-0.20;99.90
16515;DHT22;8370;52.556;7.970;2023-02-28T06:58:32;-0.20;99.90
16515;DHT22;8370;52.556;7.970;2023-02-28T07:00:58;-0.10;99.90
16515;DHT22;8370;52.556;7.970;2023-02-28T07:03:23;-0.10;99.90
16515;DHT22;8370;52.556;7.970;2023-02-28T07:05:49;0.00;99.90
16515;DHT22;8370;52.556;7.970;2023-02-28T07:08:14;0.00;99.90
16515;DHT22;8370;52.556;7.970;2023-02-28T07:10:40;0.10;99.90
16515;DHT22;8370;52.556;7.970;2023-02-28T07:13:07;0.10;99.90
16515;DHT22;8370;52.556;7.970;2023-02-28T07:15:34;0.10;99.90
16515;DHT22;8370;52.556;7.970;2023-02-28T07:18:00;0.10;99.90
16515;DHT22;8370;52.556;7.970;2023-02-28T07:20:25;0.10;99.90
16515;DHT22;8370;52.556;7.970;2023-02-28T07:22:51;0.00;99.90
16515;DHT22;8370;52.556;7.970;2023-02-28T07:25:23;0.10;99.90
16515;DHT22;8370;52.556;7.970;2023-02-28T07:27:49;0.10;99.90
16515;DHT22;8370;52.556;7.970;2023-02-28T07:30:15;0.20;99.90
16515;DHT22;8370;52.556;7.970;2023-02-28T07:32:41;0.20;99.90
16515;DHT22;8370;52.556;7.970;2023-02-28T07:35:07;0.20;99.90
16515;DHT22;8370;52.556;7.970;2023-02-28T07:37:33;0.30;99.90
16515;DHT22;8370;52.556;7.970;2023-02-28T07:40:03;0.30;99.90
16515;DHT22;8370;52.556;7.970;2023-02-28T07:42:31;0.40;99.90
16515;DHT22;8370;52.556;7.970;2023-02-28T07:44:57;0.50;99.90
16515;DHT22;8370;52.556;7.970;2023-02-28T07:47:22;0.50;99.90
16515;DHT22;8370;52.556;7.970;2023-02-28T07:49:48;0.60;99.90
16515;DHT22;8370;52.556;7.970;2023-02-28T07:52:13;0.70;99.90
16515;DHT22;8370;52.556;7.970;2023-02-28T07:54:39;0.70;99.90
16515;DHT22;8370;52.556;7.970;2023-02-28T07:57:04;0.80;99.90
16515;DHT22;8370;52.556;7.970;2023-02-28T07:59:30;0.80;99.90
16515;DHT22;8370;52.556;7.970;2023-02-28T08:01:57;0.90;99.90
16515;DHT22;8370;52.556;7.970;2023-02-28T08:04:22;0.90;99.90
16515;DHT22;8370;52.556;7.970;2023-02-28T08:06:48;1.00;99.90
16515;DHT22;8370;52.556;7.970;2023-02-28T08:09:13;1.00;99.90
16515;DHT22;8370;52.556;7.970;2023-02-28T08:11:40;1.10;99.90
16515;DHT22;8370;52.556;7.970;2023-02-28T08:14:05;1.20;99.90
16515;DHT22;8370;52.556;7.970;2023-02-28T08:16:31;1.30;99.90
16515;DHT22;8370;52.556;7.970;2023-02-28T08:18:56;1.30;99.90
16515;DHT22;8370;52.556;7.970;2023-02-28T08:21:22;1.40;99.90
16515;DHT22;8370;52.556;7.970;2023-02-28T08:23:48;1.50;99.90
16515;DHT22;8370;52.556;7.970;2023-02-28T08:26:15;1.60;99.90
16515;DHT22;8370;52.556;7.970;2023-02-28T08:28:41;1.70;99.90
16515;DHT22;8370;52.556;7.970;2023-02-28T08:31:08;1.80;99.90
16515;DHT22;8370;52.556;7.970;2023-02-28T08:33:34;2.00;99.90
16515;DHT22;8370;52.556;7.970;2023-02-28T08:36:00;2.10;99.90
16515;DHT22;8370;52.556;7.970;2023-02-28T08:38:25;2.20;99.90
16515;DHT22;8370;52.556;7.970;2023-02-28T08:40:58;2.30;99.90
16515;DHT22;8370;52.556;7.970;2023-02-28T08:43:24;2.40;99.90
16515;DHT22;8370;52.556;7.970;2023-02-28T08:45:55;2.50;99.90
16515;DHT22;8370;52.556;7.970;2023-02-28T08:48:28;2.50;99.90
16515;DHT22;8370;52.556;7.970;2023-02-28T08:50:59;2.60;99.90
16515;DHT22;8370;52.556;7.970;2023-02-28T08:53:24;2.70;99.90
16515;DHT22;8370;52.556;7.970;2023-02-28T08:56:01;2.80;99.90
16515;DHT22;8370;52.556;7.970;2023-02-28T08:58:27;3.00;99.90
16515;DHT22;8370;52.556;7.970;2023-02-28T09:00:53;3.10;99.90
16515;DHT22;8370;52.556;7.970;2023-02-28T09:03:20;3.20;99.90
16515;DHT22;8370;52.556;7.970;2023-02-28T09:05:56;3.30;99.90
16515;DHT22;8370;52.556;7.970;2023-02-28T09:08:26;3.40;99.90
16515;DHT22;8370;52.556;7.970;2023-02-28T09:10:52;3.50;99.90
16515;DHT22;8370;52.556;7.970;2023-02-28T09:13:18;3.60;99.90
16515;DHT22;8370;52.556;7.970;2023-02-28T09:15:43;3.70;99.90
16515;DHT22;8370;52.556;7.970;2023-02-28T09:18:09;3.90;99.90
16515;DHT22;8370;52.556;7.970;2023-02-28T09:20:37;3.90;99.90
16515;DHT22;8370;52.556;7.970;2023-02-28T09:23:03;4.10;99.90
16515;DHT22;8370;52.556;7.970;2023-02-28T09:25:29;4.20;99.90
16515;DHT22;8370;52.556;7.970;2023-02-28T09:27:54;4.20;99.90
16515;DHT22;8370;52.556;7.970;2023-02-28T09:30:20;4.30;99.90
16515;DHT22;8370;52.556;7.970;2023-02-28T09:32:45;4.40;99.90
16515;DHT22;8370;52.556;7.970;2023-02-28T09:35:17;4.50;99.90
16515;DHT22;8370;52.556;7.970;2023-02-28T09:37:43;4.60;99.90
16515;DHT22;8370;52.556;7.970;2023-02-28T09:40:10;4.80;99.90
16515;DHT22;8370;52.556;7.970;2023-02-28T09:42:36;4.80;99.90
16515;DHT22;8370;52.556;7.970;2023-02-28T09:45:06;4.90;99.90
16515;DHT22;8370;52.556;7.970;2023-02-28T09:47:40;5.00;99.90
16515;DHT22;8370;52.556;7.970;2023-02-28T09:50:21;5.10;99.90
16515;DHT22;8370;52.556;7.970;2023-02-28T09:52:49;5.10;99.90
16515;DHT22;8370;52.556;7.970;2023-02-28T09:55:19;5.20;99.90
16515;DHT22;8370;52.556;7.970;2023-02-28T09:57:45;5.30;99.90
16515;DHT22;8370;52.556;7.970;2023-02-28T10:00:18;5.50;99.90
16515;DHT22;8370;52.556;7.970;2023-02-28T10:02:48;5.60;99.90
16515;DHT22;8370;52.556;7.970;2023-02-28T10:05:19;5.80;99.90
16515;DHT22;8370;52.556;7.970;2023-02-28T10:08:03;5.90;99.90
16515;DHT22;8370;52.556;7.970;2023-02-28T10:10:39;5.80;99.90
16515;DHT22;8370;52.556;7.970;2023-02-28T10:13:13;5.90;99.90
16515;DHT22;8370;52.556;7.970;2023-02-28T10:15:40;5.90;99.90
16515;DHT22;8370;52.556;7.970;2023-02-28T10:18:11;6.10;99.90
16515;DHT22;8370;52.556;7.970;2023-02-28T10:20:39;6.40;99.90
16515;DHT22;8370;52.556;7.970;2023-02-28T10:23:09;6.70;99.90
16515;DHT22;8370;52.556;7.970;2023-02-28T10:25:38;8.20;99.90
16515;DHT22;8370;52.556;7.970;2023-02-28T10:28:12;11.40;99.90
16515;DHT22;8370;52.556;7.970;2023-02-28T10:30:49;13.80;99.90
16515;DHT22;8370;52.556;7.970;2023-02-28T10:33:25;12.80;96.50
16515;DHT22;8370;52.556;7.970;2023-02-28T10:35:53;11.20;96.70
16515;DHT22;8370;52.556;7.970;2023-02-28T10:38:24;10.10;98.90
16515;DHT22;8370;52.556;7.970;2023-02-28T10:40:51;9.30;98.00
16515;DHT22;8370;52.556;7.970;2023-02-28T10:46:03;8.30;97.10
16515;DHT22;8370;52.556;7.970;2023-02-28T10:48:39;7.90;99.10
16515;DHT22;8370;52.556;7.970;2023-02-28T10:51:08;7.70;98.70
16515;DHT22;8370;52.556;7.970;2023-02-28T10:53:49;7.60;99.90
16515;DHT22;8370;52.556;7.970;2023-02-28T10:56:20;7.50;99.90
16515;DHT22;8370;52.556;7.970;2023-02-28T11:03:51;7.40;99.60
16515;DHT22;8370;52.556;7.970;2023-02-28T11:06:22;7.40;99.90
16515;DHT22;8370;52.556;7.970;2023-02-28T11:08:54;7.40;99.90
16515;DHT22;8370;52.556;7.970;2023-02-28T11:11:22;7.80;99.90
16515;DHT22;8370;52.556;7.970;2023-02-28T11:13:53;8.60;99.20
16515;DHT22;8370;52.556;7.970;2023-02-28T11:16:19;10.80;97.00
16515;DHT22;8370;52.556;7.970;2023-02-28T11:18:54;13.90;93.10
16515;DHT22;8370;52.556;7.970;2023-02-28T11:21:40;16.70;91.20
16515;DHT22;8370;52.556;7.970;2023-02-28T11:26:47;20.80;71.30
16515;DHT22;8370;52.556;7.970;2023-02-28T11:29:31;22.10;66.10
16515;DHT22;8370;52.556;7.970;2023-02-28T11:32:03;22.70;59.40
16515;DHT22;8370;52.556;7.970;2023-02-28T11:34:30;23.60;59.10
16515;DHT22;8370;52.556;7.970;2023-02-28T11:36:57;24.40;56.90
16515;DHT22;8370;52.556;7.970;2023-02-28T11:39:25;24.00;56.80
16515;DHT22;8370;52.556;7.970;2023-02-28T11:44:43;23.50;54.30
16515;DHT22;8370;52.556;7.970;2023-02-28T11:50:11;24.20;54.10
16515;DHT22;8370;52.556;7.970;2023-02-28T11:52:48;24.50;54.10
16515;DHT22;8370;52.556;7.970;2023-02-28T11:55:25;24.20;53.40
16515;DHT22;8370;52.556;7.970;2023-02-28T12:00:47;24.80;55.10
16515;DHT22;8370;52.556;7.970;2023-02-28T12:11:27;23.60;54.20
16515;DHT22;8370;52.556;7.970;2023-02-28T12:19:52;25.20;51.80
16515;DHT22;8370;52.556;7.970;2023-02-28T12:27:55;24.70;52.30
16515;DHT22;8370;52.556;7.970;2023-02-28T12:30:30;24.60;52.90
16515;DHT22;8370;52.556;7.970;2023-02-28T12:33:08;24.70;53.00
16515;DHT22;8370;52.556;7.970;2023-02-28T12:35:46;24.40;51.90
16515;DHT22;8370;52.556;7.970;2023-02-28T12:38:25;24.60;51.50
16515;DHT22;8370;52.556;7.970;2023-02-28T12:41:00;25.30;51.20
16515;DHT22;8370;52.556;7.970;2023-02-28T12:43:37;25.60;49.40
16515;DHT22;8370;52.556;7.970;2023-02-28T12:46:25;25.10;50.40
16515;DHT22;8370;52.556;7.970;2023-02-28T12:48:59;24.50;52.60
16515;DHT22;8370;52.556;7.970;2023-02-28T12:51:26;23.90;53.00
16515;DHT22;8370;52.556;7.970;2023-02-28T12:59:27;23.50;52.20
16515;DHT22;8370;52.556;7.970;2023-02-28T13:04:55;24.60;52.00
16515;DHT22;8370;52.556;7.970;2023-02-28T13:10:19;24.30;50.50
16515;DHT22;8370;52.556;7.970;2023-02-28T13:12:53;23.80;49.70
16515;DHT22;8370;52.556;7.970;2023-02-28T13:15:23;23.90;52.70
16515;DHT22;8370;52.556;7.970;2023-02-28T13:17:55;23.50;51.90
16515;DHT22;8370;52.556;7.970;2023-02-28T13:20:31;23.30;51.00
16515;DHT22;8370;52.556;7.970;2023-02-28T13:22:59;23.70;49.60
16515;DHT22;8370;52.556;7.970;2023-02-28T13:28:12;23.40;52.70
16515;DHT22;8370;52.556;7.970;2023-02-28T13:33:23;22.80;53.10
16515;DHT22;8370;52.556;7.970;2023-02-28T13:44:20;17.40;60.40
16515;DHT22;8370;52.556;7.970;2023-02-28T13:54:51;12.90;68.00
16515;DHT22;8370;52.556;7.970;2023-02-28T14:00:59;11.30;73.20
16515;DHT22;8370;52.556;7.970;2023-02-28T14:06:30;11.40;71.90
16515;DHT22;8370;52.556;7.970;2023-02-28T14:09:01;11.70;72.30
16515;DHT22;8370;52.556;7.970;2023-02-28T14:11:32;11.60;71.60
16515;DHT22;8370;52.556;7.970;2023-02-28T14:13:59;11.10;74.50
16515;DHT22;8370;52.556;7.970;2023-02-28T14:16:26;10.70;73.40
16515;DHT22;8370;52.556;7.970;2023-02-28T14:19:31;10.20;77.00
16515;DHT22;8370;52.556;7.970;2023-02-28T14:25:17;9.60;76.70
16515;DHT22;8370;52.556;7.970;2023-02-28T14:30:52;9.40;76.50
16515;DHT22;8370;52.556;7.970;2023-02-28T14:39:14;9.10;77.60
16515;DHT22;8370;52.556;7.970;2023-02-28T14:41:42;9.20;79.20
16515;DHT22;8370;52.556;7.970;2023-02-28T14:44:23;9.20;81.10
16515;DHT22;8370;52.556;7.970;2023-02-28T14:46:52;9.10;81.90
16515;DHT22;8370;52.556;7.970;2023-02-28T14:49:22;9.00;81.80
16515;DHT22;8370;52.556;7.970;2023-02-28T14:54:43;8.80;80.70
16515;DHT22;8370;52.556;7.970;2023-02-28T14:58:01;8.90;81.30
16515;DHT22;8370;52.556;7.970;2023-02-28T15:00:31;8.90;83.60
16515;DHT22;8370;52.556;7.970;2023-02-28T15:02:58;8.80;83.00
16515;DHT22;8370;52.556;7.970;2023-02-28T15:08:16;8.40;83.90
16515;DHT22;8370;52.556;7.970;2023-02-28T15:10:53;8.10;84.40
16515;DHT22;8370;52.556;7.970;2023-02-28T15:13:20;8.00;84.10
16515;DHT22;8370;52.556;7.970;2023-02-28T15:15:55;7.90;86.20
16515;DHT22;8370;52.556;7.970;2023-02-28T15:18:23;7.80;87.00
16515;DHT22;8370;52.556;7.970;2023-02-28T15:20:51;7.70;87.00
16515;DHT22;8370;52.556;7.970;2023-02-28T15:23:17;7.60;86.80
16515;DHT22;8370;52.556;7.970;2023-02-28T15:25:44;7.40;86.80
16515;DHT22;8370;52.556;7.970;2023-02-28T15:28:16;7.40;88.50
16515;DHT22;8370;52.556;7.970;2023-02-28T15:30:55;7.40;89.50
16515;DHT22;8370;52.556;7.970;2023-02-28T15:33:30;7.30;90.00
16515;DHT22;8370;52.556;7.970;2023-02-28T15:36:12;7.20;89.10
16515;DHT22;8370;52.556;7.970;2023-02-28T15:38:38;7.10;89.50
16515;DHT22;8370;52.556;7.970;2023-02-28T15:41:04;7.00;89.20
16515;DHT22;8370;52.556;7.970;2023-02-28T15:43:35;6.90;90.10
16515;DHT22;8370;52.556;7.970;2023-02-28T15:46:04;6.80;91.60
16515;DHT22;8370;52.556;7.970;2023-02-28T15:48:37;6.70;91.20
16515;DHT22;8370;52.556;7.970;2023-02-28T15:51:08;6.60;90.80
16515;DHT22;8370;52.556;7.970;2023-02-28T15:53:39;6.50;90.60
16515;DHT22;8370;52.556;7.970;2023-02-28T15:59:12;6.30;91.60
16515;DHT22;8370;52.556;7.970;2023-02-28T16:01:39;6.20;92.30
16515;DHT22;8370;52.556;7.970;2023-02-28T16:04:25;6.20;92.00
16515;DHT22;8370;52.556;7.970;2023-02-28T16:09:23;6.20;94.50
16515;DHT22;8370;52.556;7.970;2023-02-28T16:11:51;6.20;93.70
16515;DHT22;8370;52.556;7.970;2023-02-28T16:14:23;6.10;95.20
16515;DHT22;8370;52.556;7.970;2023-02-28T16:16:52;6.00;96.00
16515;DHT22;8370;52.556;7.970;2023-02-28T16:19:18;5.90;96.10
16515;DHT22;8370;52.556;7.970;2023-02-28T16:21:45;5.90;95.40
16515;DHT22;8370;52.556;7.970;2023-02-28T16:24:11;5.80;96.30
16515;DHT22;8370;52.556;7.970;2023-02-28T16:26:36;5.70;96.70
16515;DHT22;8370;52.556;7.970;2023-02-28T16:29:05;5.60;96.60
16515;DHT22;8370;52.556;7.970;2023-02-28T16:31:33;5.50;98.20
16515;DHT22;8370;52.556;7.970;2023-02-28T16:34:00;5.40;98.80
16515;DHT22;8370;52.556;7.970;2023-02-28T16:36:26;5.30;99.90
16515;DHT22;8370;52.556;7.970;2023-02-28T16:38:51;5.20;99.90
16515;DHT22;8370;52.556;7.970;2023-02-28T16:41:19;5.20;99.90
16515;DHT22;8370;52.556;7.970;2023-02-28T16:43:47;5.10;99.90
16515;DHT22;8370;52.556;7.970;2023-02-28T16:46:14;5.00;99.90
16515;DHT22;8370;52.556;7.970;2023-02-28T16:48:40;4.90;99.90
16515;DHT22;8370;52.556;7.970;2023-02-28T16:51:10;4.80;99.90
16515;DHT22;8370;52.556;7.970;2023-02-28T16:53:36;4.70;99.90
16515;DHT22;8370;52.556;7.970;2023-02-28T16:56:01;4.60;99.90
16515;DHT22;8370;52.556;7.970;2023-02-28T16:58:27;4.50;99.90
16515;DHT22;8370;52.556;7.970;2023-02-28T17:00:53;4.50;99.90
16515;DHT22;8370;52.556;7.970;2023-02-28T17:03:26;4.30;99.90
16515;DHT22;8370;52.556;7.970;2023-02-28T17:05:52;4.20;99.90
16515;DHT22;8370;52.556;7.970;2023-02-28T17:08:18;4.10;99.90
16515;DHT22;8370;52.556;7.970;2023-02-28T17:10:43;4.00;99.90
16515;DHT22;8370;52.556;7.970;2023-02-28T17:13:09;3.90;99.90
16515;DHT22;8370;52.556;7.970;2023-02-28T17:15:35;3.80;99.90
16515;DHT22;8370;52.556;7.970;2023-02-28T17:18:01;3.70;99.90
16515;DHT22;8370;52.556;7.970;2023-02-28T17:20:27;3.60;99.90
16515;DHT22;8370;52.556;7.970;2023-02-28T17:22:53;3.50;99.90
16515;DHT22;8370;52.556;7.970;2023-02-28T17:25:19;3.40;99.90
16515;DHT22;8370;52.556;7.970;2023-02-28T17:27:46;3.30;99.90
16515;DHT22;8370;52.556;7.970;2023-02-28T17:30:23;3.20;99.90
16515;DHT22;8370;52.556;7.970;2023-02-28T17:32:49;3.10;99.90
16515;DHT22;8370;52.556;7.970;2023-02-28T17:35:14;3.10;99.90
16515;DHT22;8370;52.556;7.970;2023-02-28T17:37:40;3.00;99.90
16515;DHT22;8370;52.556;7.970;2023-02-28T17:40:06;3.00;99.90
16515;DHT22;8370;52.556;7.970;2023-02-28T17:42:36;3.00;99.90
16515;DHT22;8370;52.556;7.970;2023-02-28T17:45:02;2.90;99.90
16515;DHT22;8370;52.556;7.970;2023-02-28T17:47:27;2.90;99.90
16515;DHT22;8370;52.556;7.970;2023-02-28T17:49:53;2.80;99.90
16515;DHT22;8370;52.556;7.970;2023-02-28T17:52:18;2.80;99.90
16515;DHT22;8370;52.556;7.970;2023-02-28T17:54:44;2.70;99.90
16515;DHT22;8370;52.556;7.970;2023-02-28T17:57:14;2.70;99.90
16515;DHT22;8370;52.556;7.970;2023-02-28T17:59:40;2.60;99.90
16515;DHT22;8370;52.556;7.970;2023-02-28T18:02:09;2.50;99.90
16515;DHT22;8370;52.556;7.970;2023-02-28T18:04:36;2.50;99.90
16515;DHT22;8370;52.556;7.970;2023-02-28T18:07:02;2.40;99.90
16515;DHT22;8370;52.556;7.970;2023-02-28T18:09:28;2.40;99.90
16515;DHT22;8370;52.556;7.970;2023-02-28T18:11:54;2.30;99.90